Time;durP1;ratioP1;P1;durP2;ratioP2;P2;SDS_P1;SDS_P2;PMS_P1;PMS_P2;Temp;Humidity;BMP_temperature;BMP_pressure;BME280_temperature;BME280_humidity;BME280_pressure;Samples;Min_cycle;Max_cycle;Signal;HPM_P1;HPM_P2
2024/02/16 00:00:13;;;;;;;11.00;8.70;;;7.10;99.90;;;6.77;100.00;97906.63;5069245;28;20898;-75
2024/02/16 00:02:42;;;;;;;9.23;8.30;;;7.00;99.90;;;6.79;100.00;97901.06;5065289;28;20535;-77
2024/02/16 00:05:11;;;;;;;9.43;8.23;;;6.90;99.90;;;6.93;100.00;97893.94;5069289;28;21062;-75
2024/02/16 00:07:39;;;;;;;9.87;8.37;;;7.10;99.90;;;6.64;100.00;97836.72;5066064;28;20445;-75
2024/02/16 00:10:07;;;;;;;8.40;7.60;;;7.20;99.90;;;7.00;100.00;97883.25;5070219;28;20470;-77
2024/02/16 00:12:35;;;;;;;10.57;8.07;;;7.30;99.90;;;7.04;100.00;97879.16;5074483;28;20452;-76
2024/02/16 00:15:04;;;;;;;10.27;8.17;;;7.30;99.90;;;6.93;100.00;97861.72;5066912;28;20459;-74
2024/02/16 00:17:31;;;;;;;13.40;8.77;;;7.40;99.90;;;7.03;100.00;97867.56;5068493;28;20478;-74
2024/02/16 00:20:00;;;;;;;10.40;8.13;;;7.40;99.90;;;7.02;100.00;97868.59;5068905;28;20865;-72
2024/02/16 00:22:28;;;;;;;12.10;9.30;;;7.40;99.90;;;7.05;100.00;97865.53;5052327;28;20678;-78
2024/02/16 00:24:55;;;;;;;8.83;7.67;;;7.40;99.90;;;7.04;100.00;97860.34;5051365;28;20544;-77
2024/02/16 00:27:22;;;;;;;12.07;7.40;;;7.50;99.90;;;7.04;100.00;97858.47;5051187;28;20449;-77
2024/02/16 00:29:50;;;;;;;8.67;7.07;;;7.40;99.90;;;7.05;100.00;97860.16;5050289;28;20469;-78
2024/02/16 00:32:17;;;;;;;7.93;7.13;;;7.40;99.90;;;7.03;100.00;97858.69;5073393;28;20449;-77
2024/02/16 00:34:44;;;;;;;11.93;7.20;;;7.40;99.90;;;7.15;100.00;97861.63;5050960;28;20450;-75
2024/02/16 00:37:13;;;;;;;9.07;6.73;;;7.50;99.90;;;7.28;100.00;97861.72;5069679;28;20449;-74
2024/02/16 00:39:41;;;;;;;9.00;7.80;;;7.60;99.90;;;7.20;100.00;97843.06;5066469;28;20499;-79
2024/02/16 00:42:08;;;;;;;7.50;6.43;;;7.60;99.90;;;7.39;100.00;97854.94;5070536;28;20521;-73
2024/02/16 00:44:35;;;;;;;7.80;7.00;;;7.70;99.90;;;7.39;100.00;97873.78;5051012;28;20458;-77
2024/02/16 00:47:05;;;;;;;9.00;7.57;;;7.60;99.90;;;7.34;100.00;97874.34;5069144;28;20513;-76
2024/02/16 00:49:32;;;;;;;9.07;7.40;;;7.60;99.90;;;7.02;100.00;97827.47;5068271;28;20557;-74
2024/02/16 00:52:01;;;;;;;8.07;7.10;;;7.50;99.90;;;7.36;100.00;97866.09;5069057;28;20534;-73
2024/02/16 00:54:29;;;;;;;12.17;7.63;;;7.60;99.90;;;7.35;100.00;97864.44;5051164;28;21133;-74
2024/02/16 00:57:01;;;;;;;10.73;6.93;;;7.60;99.90;;;7.40;100.00;97863.88;5055949;28;20504;-74
2024/02/16 00:59:28;;;;;;;8.80;6.63;;;7.60;99.90;;;7.49;100.00;97871.56;5068072;28;20461;-73
2024/02/16 01:01:55;;;;;;;8.37;6.77;;;7.60;99.90;;;7.68;100.00;97865.66;5069568;28;20504;-76
2024/02/16 01:04:22;;;;;;;8.23;5.80;;;7.80;99.90;;;7.70;100.00;97860.91;5069911;28;20582;-74
2024/02/16 01:06:50;;;;;;;7.30;6.10;;;7.80;99.90;;;7.45;100.00;97880.22;5070603;28;20444;-76
2024/02/16 01:09:17;;;;;;;9.60;6.30;;;7.70;99.90;;;7.33;100.00;97878.06;5083047;28;20472;-74
2024/02/16 01:11:45;;;;;;;8.37;6.80;;;7.60;99.90;;;7.33;100.00;97882.63;5077218;28;20457;-77
2024/02/16 01:14:13;;;;;;;7.27;6.57;;;7.50;99.90;;;7.32;100.00;97872.91;5068246;28;20461;-74
2024/02/16 01:16:40;;;;;;;6.77;6.07;;;7.50;99.90;;;7.33;100.00;97877.25;5068849;28;20537;-78
2024/02/16 01:19:07;;;;;;;9.17;6.63;;;7.60;99.90;;;7.27;100.00;97876.19;5049189;28;20450;-77
2024/02/16 01:21:35;;;;;;;9.77;7.33;;;7.50;99.90;;;7.40;100.00;97883.50;5068646;28;20477;-74
2024/02/16 01:24:02;;;;;;;8.30;7.50;;;7.60;99.90;;;7.61;100.00;97884.44;5049659;28;20537;-76
2024/02/16 01:26:29;;;;;;;10.40;9.30;;;7.70;99.90;;;7.77;100.00;97883.25;5068466;28;20462;-74
2024/02/16 01:28:58;;;;;;;7.93;7.10;;;7.80;99.90;;;7.88;99.59;97873.78;5064849;28;20455;-77
2024/02/16 01:31:26;;;;;;;9.50;6.87;;;8.00;99.90;;;7.86;99.38;97871.31;5069250;28;20483;-75
2024/02/16 01:33:53;;;;;;;8.47;6.90;;;8.00;99.90;;;7.88;98.56;97873.78;5051922;28;20466;-75
2024/02/16 01:36:20;;;;;;;7.80;6.83;;;8.10;99.50;;;7.77;99.75;97867.13;5070950;28;20562;-75
2024/02/16 01:38:47;;;;;;;8.67;5.60;;;8.10;98.30;;;7.72;100.00;97888.41;5072393;28;20562;-72
2024/02/16 01:41:15;;;;;;;8.07;5.50;;;8.00;98.80;;;7.76;100.00;97886.97;5067710;28;20457;-76
2024/02/16 01:43:42;;;;;;;6.80;6.10;;;8.00;98.80;;;7.53;100.00;97893.50;5067522;28;20451;-76
2024/02/16 01:46:11;;;;;;;6.63;6.03;;;7.80;98.50;;;7.51;100.00;97887.50;5049593;28;20446;-75
2024/02/16 01:48:39;;;;;;;7.77;5.87;;;7.80;99.30;;;7.80;100.00;97883.69;5061927;28;20508;-76
2024/02/16 01:51:09;;;;;;;10.33;5.70;;;7.90;99.90;;;7.89;99.16;97876.28;5065458;28;20588;-76
2024/02/16 01:53:37;;;;;;;7.70;5.97;;;8.00;99.80;;;7.90;98.68;97883.31;5049092;28;20939;-76
2024/02/16 01:56:05;;;;;;;8.03;6.37;;;8.10;98.40;;;7.69;99.05;97886.13;5048918;28;20594;-76
2024/02/16 01:58:32;;;;;;;6.70;5.80;;;8.00;97.40;;;7.58;100.00;97895.56;5067965;28;20466;-77
2024/02/16 02:01:00;;;;;;;8.50;6.10;;;7.90;98.20;;;7.55;100.00;97891.44;5067453;28;20527;-77
2024/02/16 02:03:29;;;;;;;7.67;5.93;;;7.80;98.70;;;7.56;100.00;97886.88;5066617;28;20449;-76
2024/02/16 02:05:57;;;;;;;9.57;6.13;;;7.80;99.60;;;7.57;100.00;97883.16;5069791;28;20448;-76
2024/02/16 02:08:26;;;;;;;8.93;6.20;;;7.80;99.90;;;7.64;100.00;97884.84;5064370;28;20526;-75
2024/02/16 02:10:53;;;;;;;6.97;5.93;;;7.80;99.90;;;7.61;100.00;97882.56;5067500;28;20557;-77
2024/02/16 02:13:21;;;;;;;8.67;6.50;;;7.80;99.90;;;7.84;100.00;97878.75;5063792;28;20458;-77
2024/02/16 02:15:48;;;;;;;7.93;6.37;;;7.90;99.90;;;7.85;99.74;97882.25;5049266;28;20472;-76
2024/02/16 02:18:16;;;;;;;10.37;6.60;;;8.00;99.90;;;7.71;99.52;97879.50;5065919;28;20485;-74
2024/02/16 02:20:44;;;;;;;13.10;6.83;;;7.90;99.90;;;7.84;100.00;97877.91;5060912;28;20448;-74
2024/02/16 02:23:13;;;;;;;9.30;6.87;;;7.90;99.90;;;7.96;98.93;97870.06;5064027;28;20460;-76
2024/02/16 02:25:40;;;;;;;9.20;6.37;;;8.10;99.90;;;8.02;97.79;97862.03;5067503;28;20457;-76
2024/02/16 02:28:08;;;;;;;12.53;5.80;;;8.20;98.80;;;7.99;97.24;97848.16;5047843;28;20469;-76
2024/02/16 02:30:35;;;;;;;6.97;6.27;;;8.20;97.60;;;8.01;97.73;97862.25;5064748;28;20568;-77
2024/02/16 02:33:02;;;;;;;9.30;5.87;;;8.30;96.70;;;7.99;97.35;97850.84;5066333;28;20458;-73
2024/02/16 02:35:29;;;;;;;7.17;5.17;;;8.30;96.40;;;8.07;97.10;97858.72;5049139;28;20503;-75
2024/02/16 02:37:57;;;;;;;6.53;5.93;;;8.30;96.20;;;7.86;96.62;97817.50;5048437;28;20462;-75
2024/02/16 02:40:25;;;;;;;6.83;5.50;;;8.30;96.00;;;8.04;96.62;97853.75;5066211;28;20450;-76
2024/02/16 02:42:53;;;;;;;4.80;4.40;;;8.30;95.90;;;7.94;96.90;97849.59;5067406;28;20466;-74
2024/02/16 02:45:21;;;;;;;6.47;4.43;;;8.20;95.40;;;7.86;97.19;97852.47;5061433;28;20451;-74
2024/02/16 02:47:48;;;;;;;5.83;5.27;;;8.10;95.70;;;7.84;97.95;97851.84;5066719;28;20892;-77
2024/02/16 02:50:15;;;;;;;5.73;5.00;;;8.00;96.50;;;7.88;97.76;97857.63;5066567;28;20480;-76
2024/02/16 02:52:45;;;;;;;6.20;4.97;;;8.00;97.20;;;7.93;97.39;97865.94;5067372;28;20454;-75
2024/02/16 02:55:12;;;;;;;4.87;4.37;;;8.00;97.30;;;8.08;95.80;97860.38;5070655;28;20448;-75
2024/02/16 02:57:41;;;;;;;6.17;5.50;;;8.20;97.10;;;8.06;95.42;97852.53;5066017;28;20445;-76
2024/02/16 03:00:11;;;;;;;5.30;4.80;;;8.30;95.80;;;7.93;96.44;97845.25;5030021;28;20519;-76
2024/02/16 03:02:38;;;;;;;7.90;4.80;;;8.20;95.10;;;7.82;97.17;97843.16;5049389;28;21023;-78
2024/02/16 03:05:07;;;;;;;5.20;4.70;;;8.20;95.20;;;7.88;97.20;97850.41;5047890;28;20456;-77
2024/02/16 03:07:35;;;;;;;6.00;4.90;;;8.20;95.30;;;7.93;96.76;97847.94;5064209;28;21366;-74
2024/02/16 03:10:04;;;;;;;7.27;5.50;;;8.10;95.80;;;7.84;96.34;97849.16;5039202;28;20466;-77
2024/02/16 03:12:32;;;;;;;5.40;4.83;;;8.10;95.50;;;7.83;96.15;97847.50;5066793;28;20453;-76
2024/02/16 03:15:01;;;;;;;6.03;5.17;;;8.20;95.00;;;7.85;95.49;97842.75;5047994;28;20810;-75
2024/02/16 03:17:28;;;;;;;5.90;4.47;;;8.20;94.60;;;7.94;94.91;97859.53;5064211;28;20486;-73
2024/02/16 03:19:55;;;;;;;9.23;4.70;;;8.20;94.60;;;7.83;95.75;97839.44;5068713;28;20452;-74
2024/02/16 03:22:22;;;;;;;5.13;4.53;;;8.20;94.40;;;7.84;95.36;97841.09;5069972;28;20940;-77
2024/02/16 03:24:50;;;;;;;6.40;4.27;;;8.20;94.40;;;7.83;95.39;97850.19;5070137;28;20457;-75
2024/02/16 03:27:17;;;;;;;6.20;4.67;;;8.20;93.90;;;7.86;95.31;97860.53;5068653;28;20458;-77
2024/02/16 03:29:44;;;;;;;4.63;4.10;;;8.10;94.20;;;7.79;95.69;97865.91;5065815;28;20867;-75
2024/02/16 03:32:13;;;;;;;6.20;4.70;;;8.00;94.50;;;7.84;95.54;97856.38;5069454;28;20449;-78
2024/02/16 03:34:40;;;;;;;4.80;4.27;;;8.00;95.30;;;8.05;94.31;97858.09;5069346;28;20835;-75
2024/02/16 03:37:08;;;;;;;7.13;5.03;;;8.20;95.60;;;7.94;94.70;97852.28;5070077;28;20462;-76
2024/02/16 03:39:35;;;;;;;5.60;4.60;;;8.20;94.60;;;7.84;95.44;97851.84;5068813;28;20942;-74
2024/02/16 03:42:02;;;;;;;8.20;4.90;;;8.20;94.40;;;7.85;95.33;97856.19;5070457;28;20487;-77
2024/02/16 03:44:29;;;;;;;6.90;5.23;;;8.20;94.30;;;7.88;95.32;97858.47;5052231;28;20514;-77
2024/02/16 03:46:56;;;;;;;6.93;5.57;;;8.10;94.40;;;7.85;94.45;97847.28;5071115;28;20458;-76
2024/02/16 03:49:27;;;;;;;6.70;5.07;;;8.10;94.40;;;7.76;95.31;97850.16;5053742;28;20546;-77
2024/02/16 03:51:55;;;;;;;7.77;4.90;;;8.10;94.30;;;7.73;95.80;97861.31;5072200;28;20483;-76
2024/02/16 03:54:22;;;;;;;7.60;5.50;;;7.90;94.80;;;7.67;95.93;97851.34;5067499;28;20458;-74
2024/02/16 03:56:49;;;;;;;9.70;5.00;;;7.90;95.40;;;7.69;96.25;97857.38;5068143;28;20459;-76
2024/02/16 03:59:16;;;;;;;5.73;5.13;;;7.90;95.70;;;7.63;96.43;97860.88;5050416;28;20459;-75
2024/02/16 04:01:43;;;;;;;9.63;5.47;;;7.90;95.50;;;7.57;96.55;97856.28;5052553;28;20466;-74
2024/02/16 04:04:11;;;;;;;5.30;4.80;;;7.80;95.20;;;7.57;97.06;97859.81;5068955;28;20996;-76
2024/02/16 04:06:39;;;;;;;14.17;5.33;;;7.80;95.80;;;7.65;96.52;97856.94;5051622;28;20517;-77
2024/02/16 04:09:07;;;;;;;10.40;5.77;;;7.90;96.30;;;7.57;97.23;97854.44;5048176;28;20448;-75
2024/02/16 04:11:35;;;;;;;6.60;5.47;;;7.90;95.80;;;7.50;97.10;97846.31;5070113;28;20474;-77
2024/02/16 04:14:02;;;;;;;9.00;5.87;;;7.90;95.50;;;7.46;97.30;97855.84;5068900;28;20444;-71
2024/02/16 04:16:29;;;;;;;6.30;4.80;;;7.90;95.40;;;7.40;97.42;97855.78;5070233;28;20440;-75
2024/02/16 04:18:56;;;;;;;5.83;5.00;;;7.70;95.30;;;7.40;98.29;97851.22;5071482;28;20447;-76
2024/02/16 04:21:24;;;;;;;9.47;5.50;;;7.60;96.30;;;7.37;98.18;97865.91;5069826;28;20458;-77
2024/02/16 04:23:52;;;;;;;6.30;5.27;;;7.60;96.70;;;7.50;97.87;97861.63;5068605;28;20504;-79
2024/02/16 04:26:19;;;;;;;6.80;5.20;;;7.70;97.50;;;7.61;97.33;97858.38;5051227;28;20862;-78
2024/02/16 04:28:47;;;;;;;7.87;5.73;;;7.80;97.50;;;7.73;96.09;97865.88;5065944;28;20499;-75
2024/02/16 04:31:14;;;;;;;9.23;5.40;;;7.90;96.60;;;7.57;96.27;97857.13;5069227;28;20532;-75
2024/02/16 04:33:41;;;;;;;8.70;5.67;;;7.90;95.60;;;7.52;97.37;97859.59;5064556;28;20923;-76
2024/02/16 04:36:09;;;;;;;9.40;5.90;;;7.90;95.50;;;7.55;97.40;97853.81;5068990;28;20446;-76
2024/02/16 04:38:36;;;;;;;6.60;5.80;;;7.90;95.60;;;7.57;97.90;97854.44;5067935;28;20470;-77
2024/02/16 04:41:07;;;;;;;7.97;6.00;;;8.00;95.50;;;7.51;97.48;97847.19;5051321;28;20459;-74
2024/02/16 04:43:35;;;;;;;6.73;6.00;;;8.00;95.20;;;7.45;97.89;97846.13;5068408;28;20573;-75
2024/02/16 04:46:02;;;;;;;6.77;5.93;;;8.00;95.30;;;7.52;98.21;97838.06;5068694;28;20448;-76
2024/02/16 04:48:29;;;;;;;8.63;6.17;;;8.00;95.40;;;7.67;97.17;97842.47;5068023;28;20452;-75
2024/02/16 04:50:56;;;;;;;7.33;5.80;;;8.00;95.10;;;7.80;96.35;97855.94;5064698;28;20474;-74
2024/02/16 04:53:23;;;;;;;7.20;6.50;;;8.10;95.20;;;7.85;96.07;97855.34;5050888;28;20507;-75
2024/02/16 04:55:51;;;;;;;11.17;6.43;;;8.20;95.20;;;7.85;95.90;97852.66;5068920;28;20452;-75
2024/02/16 04:58:19;;;;;;;9.50;7.17;;;8.20;94.70;;;7.82;95.91;97850.38;5050819;28;21536;-76
2024/02/16 05:00:47;;;;;;;8.50;6.90;;;8.20;94.60;;;7.82;96.35;97845.84;5054470;28;20491;-77
2024/02/16 05:03:15;;;;;;;8.40;6.17;;;8.20;94.20;;;7.89;95.47;97838.63;5048562;28;20458;-76
2024/02/16 05:05:43;;;;;;;8.40;6.87;;;8.30;94.00;;;7.92;95.08;97832.81;5069223;28;20495;-77
2024/02/16 05:08:10;;;;;;;8.80;7.17;;;8.40;93.80;;;8.01;94.43;97828.06;5065145;28;20468;-75
2024/02/16 05:10:38;;;;;;;12.20;8.03;;;8.40;93.90;;;8.04;94.39;97834.94;5050828;28;20478;-75
2024/02/16 05:13:05;;;;;;;10.10;7.07;;;8.40;93.70;;;8.13;94.08;97833.72;5067828;28;20547;-76
2024/02/16 05:15:34;;;;;;;11.43;8.13;;;8.40;93.80;;;7.96;94.34;97827.03;5067789;28;20512;-77
2024/02/16 05:18:01;;;;;;;10.07;8.10;;;8.40;93.70;;;8.22;93.84;97843.22;5067141;28;20508;-72
2024/02/16 05:20:29;;;;;;;10.80;8.70;;;8.40;93.70;;;8.20;93.59;97849.88;5068579;28;20460;-76
2024/02/16 05:22:57;;;;;;;9.67;7.80;;;8.40;93.70;;;8.19;92.88;97838.25;5050703;28;20449;-75
2024/02/16 05:25:24;;;;;;;9.47;7.73;;;8.40;93.50;;;8.16;93.00;97849.44;5050016;28;20446;-74
2024/02/16 05:27:51;;;;;;;11.23;8.60;;;8.50;93.20;;;8.21;93.20;97852.34;5067619;28;20507;-77
2024/02/16 05:30:18;;;;;;;9.27;8.37;;;8.50;93.60;;;8.20;93.43;97852.56;5042863;28;20462;-74
2024/02/16 05:32:48;;;;;;;10.07;7.63;;;8.50;93.20;;;8.25;92.63;97854.63;5050723;28;20523;-75
2024/02/16 05:35:16;;;;;;;10.80;8.43;;;8.50;93.20;;;8.19;93.27;97851.72;5049505;28;20456;-78
2024/02/16 05:37:48;;;;;;;9.70;8.07;;;8.40;93.20;;;8.18;93.13;97863.53;5062507;28;20489;-76
2024/02/16 05:40:22;;;;;;;7.87;7.07;;;8.30;93.70;;;8.20;93.08;97861.47;5068138;28;20888;-75
2024/02/16 05:42:50;;;;;;;10.90;8.80;;;8.30;93.90;;;8.08;93.08;97846.94;5051778;28;20452;-75
2024/02/16 05:45:18;;;;;;;10.93;8.97;;;8.30;94.20;;;8.17;94.16;97853.78;5068337;28;20457;-75
2024/02/16 05:47:47;;;;;;;11.87;9.00;;;8.30;94.60;;;8.14;93.30;97846.13;5051591;28;20473;-76
2024/02/16 05:50:14;;;;;;;9.00;8.10;;;8.40;94.20;;;8.32;93.01;97856.28;5067232;28;20558;-75
2024/02/16 05:52:43;;;;;;;9.60;7.97;;;8.50;94.10;;;8.36;93.17;97860.25;5068383;28;20477;-76
2024/02/16 05:55:11;;;;;;;9.73;8.40;;;8.60;94.00;;;8.32;93.12;97868.94;5066444;28;20854;-77
2024/02/16 05:57:39;;;;;;;10.73;8.87;;;8.60;93.50;;;8.29;93.27;97866.66;5063272;28;20523;-76
2024/02/16 06:00:16;;;;;;;10.37;9.27;;;8.60;93.40;;;8.27;93.64;97861.47;5065501;27;20667;-76
2024/02/16 06:02:45;;;;;;;10.47;8.57;;;8.60;93.70;;;8.23;93.07;97877.19;5070757;28;20440;-75
2024/02/16 06:05:12;;;;;;;9.23;8.20;;;8.50;93.20;;;8.29;93.20;97880.94;5065040;28;20457;-78
2024/02/16 06:07:40;;;;;;;9.47;8.03;;;8.50;93.50;;;8.17;93.66;97869.94;5066771;28;20462;-75
2024/02/16 06:10:10;;;;;;;9.03;8.13;;;8.40;93.60;;;8.19;94.27;97886.72;5063529;28;20445;-76
2024/02/16 06:12:38;;;;;;;10.80;8.60;;;8.40;94.00;;;8.11;93.78;97883.38;5064283;28;20513;-74
2024/02/16 06:15:06;;;;;;;13.00;9.40;;;8.30;94.30;;;8.16;94.57;97897.03;5061552;28;20461;-75
2024/02/16 06:17:36;;;;;;;11.00;8.63;;;8.30;94.50;;;8.13;94.13;97892.91;5062141;28;20470;-77
2024/02/16 06:20:05;;;;;;;10.53;9.43;;;8.30;94.80;;;8.22;93.74;97898.94;5063219;28;20465;-78
2024/02/16 06:22:32;;;;;;;10.50;9.40;;;8.40;95.00;;;8.07;94.45;97885.63;5068607;28;20534;-77
2024/02/16 06:25:00;;;;;;;15.50;10.53;;;8.40;93.90;;;8.07;93.95;97883.78;5074823;28;20540;-74
2024/02/16 06:27:28;;;;;;;10.93;8.80;;;8.40;93.60;;;8.19;93.65;97886.72;5063260;28;20866;-76
2024/02/16 06:29:55;;;;;;;14.37;9.50;;;8.50;93.50;;;8.13;93.89;97890.22;5061300;28;20568;-74
2024/02/16 06:32:22;;;;;;;11.83;9.20;;;8.50;93.40;;;8.12;94.25;97891.25;5087977;28;20443;-74
2024/02/16 06:34:51;;;;;;;15.73;9.40;;;8.40;93.30;;;8.07;93.35;97885.63;5061803;28;20444;-73
2024/02/16 06:37:18;;;;;;;15.50;10.33;;;8.40;93.60;;;8.07;93.72;97893.72;5069956;28;20797;-76
2024/02/16 06:39:45;;;;;;;16.40;9.73;;;8.30;93.80;;;8.04;94.14;97896.81;5065067;28;20959;-75
2024/02/16 06:42:13;;;;;;;12.40;8.80;;;8.20;94.10;;;8.04;93.99;97904.88;5062390;28;20454;-76
2024/02/16 06:44:40;;;;;;;10.40;8.97;;;8.20;94.40;;;8.00;94.27;97904.44;5062645;28;20563;-75
2024/02/16 06:47:07;;;;;;;15.80;9.17;;;8.20;94.40;;;7.92;94.37;97892.00;5062142;28;20447;-77
2024/02/16 06:49:35;;;;;;;12.00;9.30;;;8.10;94.80;;;8.05;94.41;97910.06;5062301;28;20446;-77
2024/02/16 06:52:04;;;;;;;12.77;9.20;;;8.10;94.80;;;8.02;93.86;97906.94;5061632;28;20539;-74
2024/02/16 06:54:31;;;;;;;18.80;11.10;;;8.20;94.50;;;8.14;93.21;97921.50;5066338;28;20470;-74
2024/02/16 06:56:58;;;;;;;14.47;10.37;;;8.30;94.50;;;8.25;92.85;97911.16;5064767;28;20927;-75
2024/02/16 06:59:25;;;;;;;14.50;10.27;;;8.40;93.90;;;8.28;92.27;97910.75;5060561;28;21210;-76
2024/02/16 07:01:53;;;;;;;15.73;10.10;;;8.40;93.60;;;8.18;93.47;97911.97;5062564;28;20449;-76
2024/02/16 07:04:20;;;;;;;15.57;10.23;;;8.40;93.60;;;8.35;93.03;97916.97;5060577;28;21184;-75
2024/02/16 07:06:47;;;;;;;14.57;10.87;;;8.50;93.70;;;8.52;94.30;97916.63;5062153;28;20534;-76
2024/02/16 07:09:16;;;;;;;10.90;9.77;;;8.70;93.60;;;8.58;92.18;97922.03;5061430;28;20457;-77
2024/02/16 07:11:46;;;;;;;10.80;9.73;;;8.80;93.40;;;8.76;91.17;97924.13;5050199;28;20460;-76
2024/02/16 07:14:13;;;;;;;11.07;9.50;;;8.90;93.00;;;8.64;90.26;97923.91;5049757;28;20448;-76
2024/02/16 07:16:40;;;;;;;11.27;10.17;;;9.00;92.10;;;8.42;90.27;97909.75;5049870;28;20446;-77
2024/02/16 07:19:08;;;;;;;10.73;8.70;;;9.00;91.70;;;8.58;90.27;97918.53;5048325;28;20821;-78
2024/02/16 07:21:35;;;;;;;12.63;8.30;;;9.00;91.60;;;8.76;89.62;97929.50;5062680;28;20575;-78
2024/02/16 07:24:03;;;;;;;11.80;9.60;;;9.00;91.70;;;8.79;89.74;97934.47;5047824;28;21001;-76
2024/02/16 07:26:33;;;;;;;14.40;10.57;;;9.10;91.70;;;8.95;88.68;97936.97;5048789;28;21111;-79
2024/02/16 07:29:00;;;;;;;10.97;9.10;;;9.20;91.50;;;9.07;88.51;97930.75;5048368;28;21006;-78
2024/02/16 07:31:34;;;;;;;10.77;9.67;;;9.30;91.30;;;8.82;88.40;97924.31;5045300;28;20457;-77
2024/02/16 07:34:01;;;;;;;9.97;8.87;;;9.20;90.90;;;8.88;88.52;97926.22;5051207;28;20448;-75
2024/02/16 07:36:28;;;;;;;12.40;8.83;;;9.30;90.90;;;9.08;86.98;97928.88;5049839;28;20448;-78
2024/02/16 07:38:55;;;;;;;12.73;8.60;;;9.40;91.00;;;9.34;86.51;97935.31;5047995;28;20480;-78
2024/02/16 07:41:23;;;;;;;10.43;9.33;;;9.50;90.80;;;9.44;85.10;97929.47;5042996;28;20453;-75
2024/02/16 07:43:52;;;;;;;10.23;9.23;;;9.70;90.30;;;9.20;86.12;97923.72;5047391;28;20456;-76
2024/02/16 07:46:19;;;;;;;11.23;9.40;;;9.60;90.00;;;9.27;85.99;97927.22;5049099;28;20853;-75
2024/02/16 07:48:46;;;;;;;13.50;10.43;;;9.70;90.10;;;9.39;85.05;97927.41;5047018;28;20524;-77
2024/02/16 07:51:13;;;;;;;11.33;9.67;;;9.70;89.90;;;9.53;84.02;97914.72;5052683;28;20459;-76
2024/02/16 07:53:42;;;;;;;13.10;10.00;;;9.80;89.50;;;9.68;82.91;97913.66;5047601;28;20453;-77
2024/02/16 07:56:09;;;;;;;12.23;9.67;;;10.00;88.00;;;9.42;83.86;97927.00;5046763;28;20488;-77
2024/02/16 07:58:36;;;;;;;11.43;9.80;;;9.90;88.50;;;9.63;82.61;97922.38;5049739;28;20458;-78
2024/02/16 08:01:06;;;;;;;11.10;9.37;;;9.90;88.60;;;9.69;83.11;97920.72;5050512;28;20914;-76
2024/02/16 08:03:33;;;;;;;13.30;10.40;;;10.00;87.30;;;9.62;83.19;97916.16;5047030;28;20821;-77
2024/02/16 08:06:01;;;;;;;11.00;9.87;;;10.00;87.10;;;10.05;81.22;97932.81;5048534;28;20462;-77
2024/02/16 08:08:29;;;;;;;16.00;10.57;;;10.20;87.30;;;10.46;79.47;97933.47;5041173;28;20941;-77
2024/02/16 08:10:56;;;;;;;10.27;9.27;;;10.50;86.80;;;10.27;79.72;97936.03;5050222;28;20460;-77
2024/02/16 08:13:23;;;;;;;12.10;10.90;;;10.60;85.90;;;10.13;80.13;97939.84;5041478;28;20443;-77
2024/02/16 08:15:51;;;;;;;10.93;9.33;;;10.50;85.80;;;10.38;78.90;97941.81;5045966;28;20448;-75
2024/02/16 08:18:20;;;;;;;12.97;9.40;;;10.70;85.50;;;10.28;79.38;97939.59;5035973;28;20461;-77
2024/02/16 08:20:48;;;;;;;13.43;9.30;;;10.70;85.20;;;10.01;79.20;97945.09;5051475;28;20476;-78
2024/02/16 08:23:15;;;;;;;10.13;9.10;;;10.50;85.00;;;10.51;77.90;97946.34;5077872;28;20460;-77
2024/02/16 08:25:42;;;;;;;11.83;9.27;;;10.60;85.40;;;10.47;77.65;97949.47;5073616;28;20472;-76
2024/02/16 08:28:09;;;;;;;10.60;9.53;;;10.80;85.00;;;10.49;77.54;97933.88;5037199;28;20455;-77
2024/02/16 08:30:40;;;;;;;10.80;9.77;;;10.80;84.60;;;10.57;76.45;97937.38;5066732;28;20484;-77
2024/02/16 08:33:08;;;;;;;9.47;8.57;;;10.90;84.40;;;10.35;76.78;97940.38;5076184;28;20449;-77
2024/02/16 08:35:37;;;;;;;11.10;9.30;;;10.90;83.90;;;10.47;76.86;97946.78;5051411;28;20455;-77
2024/02/16 08:38:05;;;;;;;11.67;9.47;;;10.80;84.00;;;10.38;77.13;97939.91;5047401;28;20538;-78
2024/02/16 08:40:32;;;;;;;11.83;9.70;;;10.80;83.90;;;10.34;76.97;97939.56;5048268;28;20478;-77
2024/02/16 08:43:01;;;;;;;12.77;9.57;;;10.80;83.70;;;10.63;76.28;97947.31;5046672;28;20466;-75
2024/02/16 08:45:28;;;;;;;10.17;9.17;;;10.90;83.90;;;10.72;75.64;97948.72;5046232;28;20542;-77
2024/02/16 08:47:57;;;;;;;10.50;8.90;;;11.10;83.60;;;10.82;74.71;97944.69;5048463;28;20851;-77
2024/02/16 08:50:24;;;;;;;10.93;8.70;;;11.10;83.20;;;11.23;73.66;97945.22;5047644;28;20981;-78
2024/02/16 08:52:54;;;;;;;11.50;9.23;;;11.30;83.20;;;11.40;72.91;97945.47;5048020;28;20532;-78
2024/02/16 08:55:21;;;;;;;9.60;8.60;;;11.50;82.90;;;11.28;72.09;97905.63;5046538;28;20447;-78
2024/02/16 08:57:48;;;;;;;10.00;8.93;;;11.70;82.50;;;11.48;72.48;97953.31;5047177;28;20477;-78
2024/02/16 09:00:17;;;;;;;11.33;9.60;;;11.80;82.20;;;11.69;71.24;97953.91;5045643;28;20472;-78
2024/02/16 09:02:45;;;;;;;11.63;9.63;;;12.00;81.70;;;11.88;70.24;97954.75;5051382;28;20516;-77
2024/02/16 09:05:12;;;;;;;9.70;8.80;;;12.10;81.30;;;12.04;69.45;97956.06;5053131;28;20454;-78
2024/02/16 09:07:39;;;;;;;11.83;9.60;;;12.20;81.10;;;11.80;69.76;97964.00;5048417;28;20446;-77
2024/02/16 09:10:09;;;;;;;10.77;9.77;;;12.20;80.60;;;12.03;69.09;97962.53;5046141;28;20452;-78
2024/02/16 09:12:36;;;;;;;10.03;8.60;;;12.30;80.40;;;11.87;69.14;97951.22;5054142;28;20446;-77
2024/02/16 09:15:05;;;;;;;9.80;8.80;;;12.30;80.10;;;11.76;69.94;97954.69;5054275;28;20467;-77
2024/02/16 09:17:33;;;;;;;8.90;8.20;;;12.20;80.30;;;11.50;70.85;97961.19;5045711;28;20451;-76
2024/02/16 09:20:00;;;;;;;9.80;8.80;;;12.00;80.30;;;11.89;70.22;97959.94;5046379;28;20578;-76
2024/02/16 09:22:28;;;;;;;10.90;9.47;;;12.10;80.60;;;12.30;68.81;97959.50;5046814;28;20456;-80
2024/02/16 09:24:59;;;;;;;10.50;8.63;;;12.40;80.60;;;12.27;68.28;97955.34;5043481;28;20457;-76
2024/02/16 09:27:28;;;;;;;10.13;8.97;;;12.50;80.00;;;12.15;68.85;97952.59;5049301;28;20447;-77
2024/02/16 09:29:55;;;;;;;12.47;9.07;;;12.50;79.90;;;12.56;67.67;97957.50;5046240;28;20521;-76
2024/02/16 09:32:22;;;;;;;10.70;9.03;;;12.70;79.60;;;12.51;67.05;97954.63;5047360;28;20944;-78
2024/02/16 09:34:50;;;;;;;9.20;8.30;;;12.90;79.00;;;12.47;67.48;97960.50;5045174;28;20486;-77
2024/02/16 09:37:17;;;;;;;15.33;9.80;;;12.80;79.30;;;12.79;66.67;97958.63;5045611;28;20487;-76
2024/02/16 09:39:45;;;;;;;9.57;8.37;;;12.90;79.20;;;12.88;66.38;97965.38;5046237;28;20487;-78
2024/02/16 09:42:14;;;;;;;13.07;9.23;;;13.00;79.20;;;13.13;64.80;97961.66;5046841;28;20540;-77
2024/02/16 09:44:44;;;;;;;8.80;7.53;;;13.40;78.30;;;13.30;64.04;97965.34;5049196;28;20549;-77
2024/02/16 09:47:13;;;;;;;10.80;7.90;;;13.40;78.00;;;13.50;63.44;97963.38;5045283;28;20456;-77
2024/02/16 09:49:41;;;;;;;10.57;9.23;;;13.70;77.50;;;13.05;64.39;97970.97;5045677;28;20456;-77
2024/02/16 09:52:12;;;;;;;9.40;8.60;;;13.60;77.10;;;13.33;63.57;97969.47;5046919;28;20545;-78
2024/02/16 09:54:39;;;;;;;10.13;9.10;;;13.70;77.00;;;13.07;63.68;97930.88;5046275;28;20928;-78
2024/02/16 09:57:06;;;;;;;10.90;8.40;;;13.70;76.90;;;13.45;63.82;97970.31;5046482;28;20563;-78
2024/02/16 09:59:34;;;;;;;9.80;8.80;;;13.70;76.90;;;13.73;62.91;97970.69;5044202;28;21024;-77
2024/02/16 10:02:04;;;;;;;10.57;9.50;;;13.80;77.00;;;13.39;63.25;97981.25;5042467;28;20487;-78
2024/02/16 10:04:31;;;;;;;11.70;9.03;;;13.90;76.50;;;13.94;62.50;97977.38;5047449;28;20458;-78
2024/02/16 10:06:59;;;;;;;9.30;8.33;;;14.00;76.70;;;14.13;61.16;97969.09;5043447;28;20461;-78
2024/02/16 10:09:28;;;;;;;10.70;8.60;;;14.20;76.10;;;13.67;62.25;97975.19;5036403;28;20459;-78
2024/02/16 10:11:56;;;;;;;8.70;7.67;;;14.10;76.00;;;13.90;62.58;97967.25;5046481;28;20509;-78
2024/02/16 10:14:25;;;;;;;9.87;8.73;;;14.10;76.20;;;13.85;61.89;97979.63;5049541;28;20518;-80
2024/02/16 10:17:02;;;;;;;9.30;8.33;;;14.20;75.80;;;13.48;63.73;97979.91;5046330;28;20954;-76
2024/02/16 10:19:36;;;;;;;9.10;8.20;;;13.90;76.00;;;13.34;63.65;97981.16;5060065;28;20562;-75
2024/02/16 10:22:09;;;;;;;9.50;8.67;;;13.70;76.00;;;13.47;63.33;97978.25;5038760;28;20555;-78
2024/02/16 10:24:38;;;;;;;9.00;7.53;;;13.70;76.10;;;14.00;61.56;97972.88;5048478;28;20446;-76
2024/02/16 10:27:06;;;;;;;8.20;7.20;;;14.00;76.20;;;13.52;62.62;97980.25;5057286;28;20456;-79